createdAt,value
2018-11-14T00:00:20.795Z,66.90
2018-11-14T00:02:49.505Z,64.53
2018-11-14T00:05:18.193Z,63.67
2018-11-14T00:07:46.920Z,64.87
2018-11-14T00:10:15.663Z,64.70
2018-11-14T00:12:44.431Z,69.27
2018-11-14T00:15:16.793Z,69.43
2018-11-14T00:17:46.383Z,62.33
2018-11-14T00:20:15.242Z,62.53
2018-11-14T00:22:44.957Z,63.80
2018-11-14T00:25:13.657Z,64.67
2018-11-14T00:27:42.711Z,63.93
2018-11-14T00:30:17.188Z,66.60
2018-11-14T00:32:45.777Z,76.10
2018-11-14T00:35:14.831Z,63.17
2018-11-14T00:37:43.974Z,61.37
2018-11-14T00:40:13.985Z,61.33
2018-11-14T00:42:43.240Z,64.40
2018-11-14T00:45:13.734Z,68.70
2018-11-14T00:47:43.417Z,68.20
2018-11-14T00:50:13.302Z,62.03
2018-11-14T00:52:42.505Z,66.30
2018-11-14T00:55:14.574Z,67.13
2018-11-14T00:57:44.427Z,68.40
2018-11-14T01:00:19.322Z,66.17
2018-11-14T01:02:47.997Z,63.37
2018-11-14T01:05:17.252Z,66.20
2018-11-14T01:07:45.956Z,66.70
2018-11-14T01:10:16.316Z,64.83
2018-11-14T01:12:45.628Z,63.93
2018-11-14T01:15:16.173Z,68.23
2018-11-14T01:17:44.858Z,68.13
2018-11-14T01:20:15.402Z,70.13
2018-11-14T01:22:44.589Z,69.07
2018-11-14T01:25:14.433Z,65.53
2018-11-14T01:27:44.583Z,67.17
2018-11-14T01:30:15.649Z,67.67
2018-11-14T01:32:45.039Z,62.43
2018-11-14T01:35:14.048Z,62.87
2018-11-14T01:37:42.730Z,64.17
2018-11-14T01:40:14.686Z,67.17
2018-11-14T01:42:43.854Z,61.43
2018-11-14T01:45:12.569Z,66.03
2018-11-14T01:47:41.206Z,68.83
2018-11-14T01:50:10.448Z,68.70
2018-11-14T01:52:39.436Z,65.30
2018-11-14T01:55:09.683Z,63.93
2018-11-14T01:57:38.431Z,65.47
2018-11-14T02:00:11.762Z,62.10
2018-11-14T02:02:40.482Z,63.33
2018-11-14T02:05:09.835Z,63.33
2018-11-14T02:07:38.520Z,63.90
2018-11-14T02:10:08.909Z,61.63
2018-11-14T02:12:38.538Z,59.93
2018-11-14T02:15:09.320Z,62.47
2018-11-14T02:17:38.398Z,61.80
2018-11-14T02:20:07.227Z,62.50
2018-11-14T02:22:38.955Z,63.37
2018-11-14T02:25:08.348Z,67.97
2018-11-14T02:27:37.061Z,73.20
2018-11-14T02:30:13.049Z,68.07
2018-11-14T02:32:41.734Z,72.77
2018-11-14T02:35:10.796Z,69.83
2018-11-14T02:37:40.282Z,69.27
2018-11-14T02:40:11.205Z,67.13
2018-11-14T02:42:39.889Z,67.90
2018-11-14T02:45:09.131Z,71.50
2018-11-14T02:47:37.838Z,69.00
2018-11-14T02:50:07.593Z,75.90
2018-11-14T02:52:36.265Z,70.57
2018-11-14T02:55:05.829Z,70.67
2018-11-14T02:57:34.449Z,66.70
2018-11-14T03:00:07.246Z,69.13
2018-11-14T03:02:35.926Z,71.57
2018-11-14T03:05:04.761Z,69.07
2018-11-14T03:07:33.385Z,78.27
2018-11-14T03:10:02.041Z,73.87
2018-11-14T03:12:30.805Z,73.97
2018-11-14T03:14:59.451Z,79.03
2018-11-14T03:17:28.160Z,87.67
2018-11-14T03:19:56.855Z,82.77
2018-11-14T03:22:25.523Z,77.10
2018-11-14T03:24:54.239Z,79.27
2018-11-14T03:27:22.894Z,81.90
2018-11-14T03:29:51.519Z,74.23
2018-11-14T03:32:20.150Z,61.80
2018-11-14T03:34:48.793Z,64.87
2018-11-14T03:37:17.424Z,64.77
2018-11-14T03:39:46.137Z,63.27
2018-11-14T03:42:14.827Z,57.70
2018-11-14T03:44:43.472Z,61.60
2018-11-14T03:47:12.138Z,54.33
2018-11-14T03:49:40.979Z,60.77
2018-11-14T03:52:09.675Z,63.67
2018-11-14T03:54:38.377Z,62.50
2018-11-14T03:57:07.135Z,67.50
2018-11-14T03:59:35.800Z,72.13
2018-11-14T04:02:04.513Z,71.97
2018-11-14T04:04:33.179Z,71.00
2018-11-14T04:07:01.873Z,74.30
2018-11-14T04:09:30.592Z,72.37
2018-11-14T04:11:59.206Z,72.10
2018-11-14T04:14:27.855Z,72.07
2018-11-14T04:16:56.493Z,82.43
2018-11-14T04:19:25.109Z,92.60
2018-11-14T04:21:53.800Z,104.80
2018-11-14T04:24:22.403Z,105.07
2018-11-14T04:26:51.058Z,112.57
2018-11-14T04:29:19.776Z,108.10
2018-11-14T04:31:48.402Z,105.00
2018-11-14T04:34:17.038Z,124.13
2018-11-14T04:36:45.692Z,122.13
2018-11-14T04:39:14.341Z,104.57
2018-11-14T04:41:43.060Z,107.43
2018-11-14T04:44:11.822Z,102.07
2018-11-14T04:46:40.542Z,114.33
2018-11-14T04:49:09.179Z,109.27
2018-11-14T04:51:37.878Z,116.10
2018-11-14T04:54:06.554Z,113.03
2018-11-14T04:56:35.201Z,102.30
2018-11-14T04:59:04.190Z,105.30
2018-11-14T05:01:32.781Z,110.33
2018-11-14T05:04:01.452Z,113.00
2018-11-14T05:06:30.066Z,109.90
2018-11-14T05:08:58.713Z,112.70
2018-11-14T05:11:27.333Z,104.20
2018-11-14T05:13:56.021Z,113.10
2018-11-14T05:16:24.706Z,116.47
2018-11-14T05:18:53.399Z,126.13
2018-11-14T05:21:22.209Z,118.63
2018-11-14T05:23:51.339Z,123.23
2018-11-14T05:26:19.965Z,120.97
2018-11-14T05:28:48.601Z,123.07
2018-11-14T05:31:17.286Z,116.80
2018-11-14T05:33:45.867Z,116.43
2018-11-14T05:36:14.475Z,112.40
2018-11-14T05:38:43.211Z,103.10
2018-11-14T05:41:11.877Z,104.40
2018-11-14T05:43:40.547Z,108.10
2018-11-14T05:46:09.249Z,100.53
2018-11-14T05:48:37.878Z,101.20
2018-11-14T05:51:06.509Z,107.10
2018-11-14T05:53:35.204Z,105.43
2018-11-14T05:56:03.979Z,95.70
2018-11-14T05:58:32.663Z,101.87
2018-11-14T06:01:01.399Z,106.63
2018-11-14T06:03:29.980Z,99.70
2018-11-14T06:05:58.657Z,115.87
2018-11-14T06:08:27.388Z,145.70
2018-11-14T06:10:56.172Z,147.37
2018-11-14T06:13:24.807Z,133.63
2018-11-14T06:15:53.488Z,131.70
2018-11-14T06:18:22.198Z,128.27
2018-11-14T06:20:50.845Z,126.10
2018-11-14T06:23:19.489Z,124.30
2018-11-14T06:25:48.142Z,115.43
2018-11-14T06:28:16.826Z,117.43
2018-11-14T06:30:45.526Z,106.97
2018-11-14T06:33:14.179Z,113.50
2018-11-14T06:35:42.841Z,167.23
2018-11-14T06:38:11.629Z,176.77
2018-11-14T06:40:40.301Z,162.80
2018-11-14T06:43:09.025Z,175.53
2018-11-14T06:45:37.769Z,186.43
2018-11-14T06:48:06.692Z,168.47
2018-11-14T06:50:35.394Z,162.70
2018-11-14T06:53:10.698Z,176.03
2018-11-14T06:55:39.398Z,171.80
2018-11-14T06:58:08.046Z,165.83
2018-11-14T07:00:36.933Z,133.30
2018-11-14T07:03:06.948Z,87.20
2018-11-14T07:05:35.693Z,75.87
2018-11-14T07:08:04.652Z,71.07
2018-11-14T07:10:34.952Z,76.03
2018-11-14T07:13:06.491Z,78.23
2018-11-14T07:15:35.856Z,79.43
2018-11-14T07:18:04.771Z,73.10
2018-11-14T07:20:35.009Z,88.53
2018-11-14T07:23:04.594Z,80.70
2018-11-14T07:25:33.395Z,82.77
2018-11-14T07:28:02.077Z,59.10
2018-11-14T07:30:31.666Z,58.97
2018-11-14T07:33:07.519Z,59.73
2018-11-14T07:35:36.318Z,57.63
2018-11-14T07:38:11.876Z,68.27
2018-11-14T07:40:40.598Z,66.03
2018-11-14T07:43:09.277Z,62.07
2018-11-14T07:45:37.919Z,59.60
2018-11-14T07:48:06.879Z,58.37
2018-11-14T07:50:35.565Z,68.93
2018-11-14T07:53:04.222Z,74.93
2018-11-14T07:55:32.854Z,71.20
2018-11-14T07:58:01.473Z,72.20
2018-11-14T08:00:30.110Z,69.13
2018-11-14T08:02:58.994Z,78.50
2018-11-14T08:05:27.722Z,73.10
2018-11-14T08:07:56.515Z,64.27
2018-11-14T08:10:25.189Z,62.00
2018-11-14T08:12:53.790Z,67.67
2018-11-14T08:15:22.455Z,60.67
2018-11-14T08:17:51.049Z,62.33
2018-11-14T08:20:19.684Z,60.40
2018-11-14T08:22:48.354Z,61.80
2018-11-14T08:25:17.138Z,57.00
2018-11-14T08:27:45.761Z,54.90
2018-11-14T08:30:14.481Z,53.23
2018-11-14T08:32:43.146Z,52.67
2018-11-14T08:35:11.948Z,56.40
2018-11-14T08:37:41.248Z,52.60
2018-11-14T08:40:10.538Z,52.47
2018-11-14T08:42:39.655Z,56.13
2018-11-14T08:45:10.287Z,52.57
2018-11-14T08:47:39.448Z,59.97
2018-11-14T08:50:12.347Z,55.97
2018-11-14T08:52:41.749Z,53.20
2018-11-14T08:55:11.510Z,57.50
2018-11-14T08:57:41.182Z,57.70
2018-11-14T09:00:12.661Z,63.40
2018-11-14T09:02:41.343Z,68.33
2018-11-14T09:05:10.409Z,57.97
2018-11-14T09:07:39.243Z,58.87
2018-11-14T09:10:10.485Z,56.27
2018-11-14T09:12:39.734Z,62.73
2018-11-14T09:15:09.597Z,60.70
2018-11-14T09:17:38.249Z,60.90
2018-11-14T09:20:08.136Z,56.93
2018-11-14T09:22:36.847Z,63.53
2018-11-14T09:25:07.267Z,66.73
2018-11-14T09:27:36.005Z,59.53
2018-11-14T09:30:09.861Z,64.33
2018-11-14T09:32:38.505Z,62.17
2018-11-14T09:35:08.304Z,67.10
2018-11-14T09:37:36.927Z,66.67
2018-11-14T09:40:07.264Z,64.97
2018-11-14T09:42:36.145Z,59.93
2018-11-14T09:45:05.495Z,55.10
2018-11-14T09:47:34.258Z,57.73
2018-11-14T09:50:03.025Z,55.20
2018-11-14T09:52:31.640Z,57.67
2018-11-14T09:55:00.313Z,57.10
2018-11-14T09:57:28.954Z,56.33
2018-11-14T09:59:57.696Z,44.90
2018-11-14T10:02:26.325Z,48.37
2018-11-14T10:04:54.981Z,41.13
2018-11-14T10:07:23.677Z,39.80
2018-11-14T10:09:52.349Z,38.03
2018-11-14T10:12:21.109Z,35.73
2018-11-14T10:14:49.775Z,37.77
2018-11-14T10:17:18.492Z,44.67
2018-11-14T10:19:47.129Z,46.47
2018-11-14T10:22:15.725Z,40.13
2018-11-14T10:24:44.468Z,42.30
2018-11-14T10:27:13.093Z,38.60
2018-11-14T10:29:41.796Z,43.33
2018-11-14T10:32:10.477Z,40.00
2018-11-14T10:34:39.166Z,40.20
2018-11-14T10:37:07.837Z,38.80
2018-11-14T10:39:36.477Z,46.30
2018-11-14T10:42:05.372Z,40.23
2018-11-14T10:44:33.997Z,44.40
2018-11-14T10:47:02.645Z,42.43
2018-11-14T10:49:31.262Z,44.83
2018-11-14T10:51:59.910Z,42.60
2018-11-14T10:54:28.621Z,40.27
2018-11-14T10:56:57.248Z,48.73
2018-11-14T10:59:25.846Z,47.37
2018-11-14T11:01:59.778Z,47.53
2018-11-14T11:04:33.782Z,44.13
2018-11-14T11:07:07.641Z,46.53
2018-11-14T11:09:41.428Z,51.07
2018-11-14T11:12:15.422Z,49.40
2018-11-14T11:14:49.213Z,42.20
2018-11-14T11:17:22.981Z,46.57
2018-11-14T11:19:52.367Z,43.70
2018-11-14T11:22:21.013Z,45.57
2018-11-14T11:24:49.698Z,46.17
2018-11-14T11:27:18.338Z,50.60
2018-11-14T11:29:46.953Z,49.77
2018-11-14T11:32:15.642Z,51.67
2018-11-14T11:34:44.298Z,51.03
2018-11-14T11:37:12.940Z,51.57
2018-11-14T11:39:41.555Z,50.43
2018-11-14T11:42:10.433Z,57.57
2018-11-14T11:44:39.145Z,57.17
2018-11-14T11:47:07.762Z,55.70
2018-11-14T11:49:36.448Z,52.43
2018-11-14T11:52:05.313Z,55.87
2018-11-14T11:54:34.026Z,56.27
2018-11-14T11:57:02.729Z,61.60
2018-11-14T11:59:31.466Z,57.70
2018-11-14T12:02:00.210Z,57.17
2018-11-14T12:04:30.135Z,62.27
2018-11-14T12:06:58.340Z,55.63
2018-11-14T12:09:27.003Z,64.73
2018-11-14T12:11:55.613Z,64.53
2018-11-14T12:14:24.284Z,64.27
2018-11-14T12:16:52.939Z,66.47
2018-11-14T12:19:21.618Z,68.73
2018-11-14T12:21:50.286Z,72.40
2018-11-14T12:24:18.937Z,68.23
2018-11-14T12:26:47.675Z,69.23
2018-11-14T12:29:16.390Z,69.03
2018-11-14T12:31:44.987Z,67.57
2018-11-14T12:34:13.705Z,69.90
2018-11-14T12:36:42.403Z,70.27
2018-11-14T12:39:11.057Z,75.60
2018-11-14T12:41:39.685Z,71.27
2018-11-14T12:44:08.360Z,64.03
2018-11-14T12:46:37.065Z,70.67
2018-11-14T12:49:05.845Z,69.43
2018-11-14T12:51:34.485Z,73.60
2018-11-14T12:54:03.151Z,74.37
2018-11-14T12:56:31.814Z,72.13
2018-11-14T12:59:00.465Z,68.93
2018-11-14T13:01:29.113Z,71.73
2018-11-14T13:03:58.010Z,72.53
2018-11-14T13:09:00.597Z,69.83
2018-11-14T13:11:29.253Z,73.37
2018-11-14T13:13:57.928Z,72.30
2018-11-14T13:16:26.656Z,69.43
2018-11-14T13:18:55.355Z,72.77
2018-11-14T13:21:24.079Z,73.67
2018-11-14T13:23:52.698Z,67.93
2018-11-14T13:26:21.453Z,74.93
2018-11-14T13:28:50.186Z,68.13
2018-11-14T13:31:18.934Z,74.57
2018-11-14T13:33:47.651Z,66.17
2018-11-14T13:36:16.302Z,71.57
2018-11-14T13:38:45.005Z,72.30
2018-11-14T13:41:13.658Z,71.53
2018-11-14T13:43:42.365Z,72.33
2018-11-14T13:46:11.042Z,79.33
2018-11-14T13:48:39.769Z,79.37
2018-11-14T13:51:08.508Z,74.60
2018-11-14T13:53:37.105Z,77.83
2018-11-14T13:56:05.965Z,71.27
2018-11-14T13:58:34.625Z,75.73
2018-11-14T14:01:03.361Z,71.43
2018-11-14T14:03:32.001Z,78.27
2018-11-14T14:06:00.664Z,73.93
2018-11-14T14:08:29.359Z,74.70
2018-11-14T14:10:58.107Z,73.27
2018-11-14T14:13:26.724Z,73.97
2018-11-14T14:15:55.427Z,79.80
2018-11-14T14:18:24.070Z,76.57
2018-11-14T14:20:52.727Z,76.33
2018-11-14T14:23:21.402Z,68.93
2018-11-14T14:25:50.113Z,69.90
2018-11-14T14:28:18.781Z,68.57
2018-11-14T14:30:47.556Z,76.00
2018-11-14T14:33:16.208Z,69.43
2018-11-14T14:35:44.948Z,69.83
2018-11-14T14:38:13.660Z,65.90
2018-11-14T14:40:42.361Z,77.07
2018-11-14T14:43:11.064Z,66.87
2018-11-14T14:45:39.720Z,69.17
2018-11-14T14:48:08.377Z,62.57
2018-11-14T14:50:37.089Z,66.93
2018-11-14T14:53:06.087Z,67.40
2018-11-14T14:55:34.735Z,60.53
2018-11-14T14:58:03.522Z,65.50
2018-11-14T15:00:32.197Z,61.90
2018-11-14T15:03:00.922Z,62.07
2018-11-14T15:05:29.553Z,61.00
2018-11-14T15:07:58.263Z,60.97
2018-11-14T15:10:26.969Z,58.30
2018-11-14T15:12:55.639Z,55.83
2018-11-14T15:15:24.324Z,53.80
2018-11-14T15:17:52.993Z,53.03
2018-11-14T15:20:22.970Z,54.37
2018-11-14T15:22:51.689Z,51.93
2018-11-14T15:25:21.790Z,50.77
2018-11-14T15:27:50.916Z,52.53
2018-11-14T15:30:22.831Z,47.77
2018-11-14T15:32:51.572Z,55.20
2018-11-14T15:35:20.310Z,50.27
2018-11-14T15:37:48.919Z,53.80
2018-11-14T15:40:18.632Z,52.13
2018-11-14T15:42:47.566Z,49.97
2018-11-14T15:45:30.810Z,55.50
2018-11-14T15:47:59.701Z,52.93
2018-11-14T15:50:29.778Z,54.07
2018-11-14T15:52:58.899Z,49.77
2018-11-14T15:55:27.636Z,48.53
2018-11-14T15:57:56.732Z,46.10
2018-11-14T16:00:32.835Z,49.47
2018-11-14T16:03:01.574Z,42.57
2018-11-14T16:05:31.617Z,49.97
2018-11-14T16:08:01.563Z,46.23
2018-11-14T16:10:31.222Z,46.00
2018-11-14T16:12:59.988Z,46.67
2018-11-14T16:15:30.338Z,42.30
2018-11-14T16:17:59.071Z,48.00
2018-11-14T16:20:28.104Z,46.70
2018-11-14T16:22:56.859Z,40.40
2018-11-14T16:25:26.413Z,43.93
2018-11-14T16:27:56.409Z,41.43
2018-11-14T16:30:27.467Z,47.77
2018-11-14T16:32:57.513Z,42.77
2018-11-14T16:35:26.336Z,41.73
2018-11-14T16:37:55.469Z,39.97
2018-11-14T16:40:27.344Z,42.03
2018-11-14T16:42:56.960Z,43.60
2018-11-14T16:45:25.815Z,41.17
2018-11-14T16:47:54.714Z,36.77
2018-11-14T16:50:23.905Z,37.37
2018-11-14T16:52:52.648Z,40.47
2018-11-14T16:55:22.074Z,39.47
2018-11-14T16:57:51.737Z,36.70
2018-11-14T17:00:21.913Z,37.80
2018-11-14T17:02:50.593Z,41.00
2018-11-14T17:05:19.781Z,35.37
2018-11-14T17:07:48.628Z,36.63
2018-11-14T17:10:18.666Z,36.27
2018-11-14T17:12:48.421Z,34.43
2018-11-14T17:15:19.616Z,34.27
2018-11-14T17:17:48.340Z,33.83
2018-11-14T17:20:18.077Z,35.30
2018-11-14T17:22:47.344Z,35.33
2018-11-14T17:25:16.883Z,38.73
2018-11-14T17:27:45.960Z,38.13
2018-11-14T17:30:16.331Z,33.73
2018-11-14T17:32:45.254Z,39.83
2018-11-14T17:35:15.478Z,35.83
2018-11-14T17:37:44.707Z,36.97
2018-11-14T17:40:17.787Z,35.20
2018-11-14T17:42:47.311Z,32.70
2018-11-14T17:45:18.309Z,31.57
2018-11-14T17:47:47.841Z,33.90
2018-11-14T17:50:18.476Z,40.53
2018-11-14T17:52:47.969Z,35.40
2018-11-14T17:55:17.649Z,33.73
2018-11-14T17:57:46.388Z,42.20
2018-11-14T18:00:16.454Z,36.73
2018-11-14T18:02:45.682Z,31.90
2018-11-14T18:05:19.575Z,35.40
2018-11-14T18:07:49.350Z,32.73
2018-11-14T18:10:19.351Z,35.77
2018-11-14T18:12:49.057Z,35.37
2018-11-14T18:15:17.928Z,34.90
2018-11-14T18:17:47.021Z,39.40
2018-11-14T18:20:18.065Z,36.00
2018-11-14T18:22:47.366Z,30.33
2018-11-14T18:25:16.457Z,26.90
2018-11-14T18:27:45.128Z,29.07
2018-11-14T18:30:18.217Z,29.20
2018-11-14T18:32:46.921Z,28.43
2018-11-14T18:35:16.667Z,29.47
2018-11-14T18:37:46.132Z,29.33
2018-11-14T18:40:17.113Z,31.50
2018-11-14T18:42:46.181Z,30.30
2018-11-14T18:45:19.473Z,32.83
2018-11-14T18:47:48.571Z,31.13
2018-11-14T18:50:17.953Z,28.67
2018-11-14T18:52:47.264Z,31.03
2018-11-14T18:55:18.013Z,30.23
2018-11-14T18:57:47.123Z,27.00
2018-11-14T19:00:19.294Z,27.07
2018-11-14T19:02:48.261Z,27.13
2018-11-14T19:05:17.695Z,24.67
2018-11-14T19:07:46.430Z,26.80
2018-11-14T19:10:16.455Z,28.47
2018-11-14T19:12:46.129Z,25.63
2018-11-14T19:15:17.323Z,29.80
2018-11-14T19:17:45.982Z,28.83
2018-11-14T19:20:16.905Z,31.80
2018-11-14T19:22:45.617Z,30.40
2018-11-14T19:25:15.534Z,29.17
2018-11-14T19:27:44.926Z,28.87
2018-11-14T19:30:16.365Z,27.83
2018-11-14T19:32:46.945Z,27.50
2018-11-14T19:35:15.861Z,26.53
2018-11-14T19:37:45.730Z,26.47
2018-11-14T19:40:16.314Z,27.43
2018-11-14T19:42:45.673Z,28.13
2018-11-14T19:45:16.781Z,28.20
2018-11-14T19:47:45.485Z,26.17
2018-11-14T19:50:18.084Z,26.97
2018-11-14T19:52:47.069Z,26.13
2018-11-14T19:55:17.187Z,27.47
2018-11-14T19:57:46.902Z,29.13
2018-11-14T20:00:18.871Z,28.73
2018-11-14T20:02:47.550Z,26.00
2018-11-14T20:05:17.374Z,27.03
2018-11-14T20:07:46.093Z,26.13
2018-11-14T20:10:23.024Z,28.13
2018-11-14T20:12:52.202Z,28.10
2018-11-14T20:15:22.408Z,28.57
2018-11-14T20:17:51.341Z,25.80
2018-11-14T20:20:21.653Z,27.37
2018-11-14T20:22:50.365Z,28.00
2018-11-14T20:25:19.301Z,27.67
2018-11-14T20:27:48.261Z,28.03
2018-11-14T20:30:21.357Z,33.20
2018-11-14T20:32:50.524Z,34.03
2018-11-14T20:35:20.237Z,28.23
2018-11-14T20:37:48.989Z,27.43
2018-11-14T20:40:20.006Z,28.77
2018-11-14T20:42:49.873Z,30.50
2018-11-14T20:45:21.313Z,29.97
2018-11-14T20:47:50.052Z,27.63
2018-11-14T20:50:20.048Z,29.67
2018-11-14T20:52:50.376Z,30.07
2018-11-14T20:55:19.135Z,29.63
2018-11-14T20:57:47.834Z,29.20
2018-11-14T21:00:23.137Z,31.03
2018-11-14T21:02:52.345Z,26.23
2018-11-14T21:05:22.133Z,29.43
2018-11-14T21:07:50.989Z,29.67
2018-11-14T21:10:21.180Z,28.20
2018-11-14T21:12:50.789Z,31.77
2018-11-14T21:15:20.834Z,29.50
2018-11-14T21:17:50.269Z,28.50
2018-11-14T21:20:19.337Z,28.90
2018-11-14T21:22:48.072Z,29.07
2018-11-14T21:25:18.026Z,30.43
2018-11-14T21:27:47.367Z,30.90
2018-11-14T21:30:18.358Z,29.20
2018-11-14T21:32:47.056Z,28.37
2018-11-14T21:35:19.126Z,29.87
2018-11-14T21:37:49.410Z,28.53
2018-11-14T21:40:18.131Z,29.30
2018-11-14T21:42:46.869Z,30.10
2018-11-14T21:45:16.775Z,29.47
2018-11-14T21:47:50.590Z,29.87
2018-11-14T21:50:20.441Z,30.70
2018-11-14T21:52:49.493Z,29.87
2018-11-14T21:55:18.557Z,31.77
2018-11-14T21:57:47.373Z,31.10
2018-11-14T22:00:18.810Z,30.63
2018-11-14T22:02:49.927Z,30.27
2018-11-14T22:05:18.608Z,28.70
2018-11-14T22:07:47.313Z,33.83
2018-11-14T22:10:17.318Z,28.97
2018-11-14T22:12:46.529Z,35.57
2018-11-14T22:15:16.245Z,33.47
2018-11-14T22:17:44.949Z,30.37
2018-11-14T22:20:14.921Z,33.07
2018-11-14T22:22:44.314Z,31.37
2018-11-14T22:25:14.157Z,31.07
2018-11-14T22:27:42.958Z,30.57
2018-11-14T22:30:13.853Z,31.60
2018-11-14T22:32:42.533Z,35.33
2018-11-14T22:35:13.834Z,31.77
2018-11-14T22:37:42.553Z,34.10
2018-11-14T22:40:13.347Z,32.50
2018-11-14T22:42:42.181Z,33.53
2018-11-14T22:45:13.073Z,33.03
2018-11-14T22:47:42.254Z,32.63
2018-11-14T22:50:12.269Z,32.23
2018-11-14T22:52:42.014Z,35.87
2018-11-14T22:55:11.958Z,33.40
2018-11-14T22:57:40.859Z,32.87
2018-11-14T23:00:50.397Z,33.60
2018-11-14T23:03:19.045Z,34.60
2018-11-14T23:05:47.795Z,36.33
2018-11-14T23:08:16.480Z,34.53
2018-11-14T23:10:45.201Z,37.53
2018-11-14T23:13:13.844Z,37.30
2018-11-14T23:15:42.524Z,35.10
2018-11-14T23:18:11.215Z,36.17
2018-11-14T23:20:39.827Z,35.37
2018-11-14T23:23:08.499Z,37.00
2018-11-14T23:25:37.171Z,34.60
2018-11-14T23:28:05.886Z,36.73
2018-11-14T23:30:34.612Z,37.50
2018-11-14T23:33:03.302Z,34.83
2018-11-14T23:35:32.642Z,37.87
2018-11-14T23:38:04.614Z,37.63
2018-11-14T23:40:33.399Z,39.27
2018-11-14T23:43:02.177Z,38.67
2018-11-14T23:45:31.463Z,36.73
2018-11-14T23:48:00.085Z,37.73
2018-11-14T23:50:29.956Z,37.60
2018-11-14T23:52:59.610Z,37.80
2018-11-14T23:55:29.098Z,38.43
2018-11-14T23:57:58.085Z,34.73
